createdAt,value
2022-08-07T00:00:55.705Z,29.60
2022-08-07T00:03:28.223Z,29.80
2022-08-07T00:06:08.193Z,29.70
2022-08-07T00:08:37.374Z,29.40
2022-08-07T00:11:13.779Z,29.30
2022-08-07T00:13:48.149Z,29.70
2022-08-07T00:16:17.522Z,30.00
2022-08-07T00:18:49.884Z,30.00
2022-08-07T00:21:56.634Z,29.80
2022-08-07T00:24:06.792Z,30.00
2022-08-07T00:26:49.520Z,30.10
2022-08-07T00:29:26.604Z,30.20
2022-08-07T00:32:00.166Z,30.20
2022-08-07T00:34:28.744Z,30.20
2022-08-07T00:36:57.680Z,30.20
2022-08-07T00:39:25.642Z,29.90
2022-08-07T00:42:01.742Z,29.60
2022-08-07T00:44:33.170Z,29.40
2022-08-07T00:47:01.717Z,29.20
2022-08-07T00:50:19.780Z,29.40
2022-08-07T00:52:20.057Z,29.40
2022-08-07T00:54:53.729Z,29.50
2022-08-07T00:57:25.139Z,29.40
2022-08-07T00:59:54.305Z,29.30
2022-08-07T01:02:28.452Z,29.30
2022-08-07T01:04:59.326Z,29.40
2022-08-07T01:07:29.629Z,29.50
2022-08-07T01:10:05.862Z,29.50
2022-08-07T01:12:53.381Z,29.40
2022-08-07T01:15:35.634Z,29.50
2022-08-07T01:18:17.473Z,29.20
2022-08-07T01:20:59.447Z,29.30
2022-08-07T01:23:38.538Z,29.30
2022-08-07T01:26:12.215Z,29.40
2022-08-07T01:28:46.240Z,29.70
2022-08-07T01:31:27.893Z,29.90
2022-08-07T01:34:10.629Z,30.10
2022-08-07T01:36:44.172Z,30.10
2022-08-07T01:39:20.903Z,30.10
2022-08-07T01:42:36.842Z,30.10
2022-08-07T01:44:48.365Z,30.20
2022-08-07T01:48:20.824Z,30.30
2022-08-07T01:50:09.308Z,30.30
2022-08-07T01:52:49.446Z,30.40
2022-08-07T01:55:27.632Z,30.40
2022-08-07T01:58:05.456Z,30.40
2022-08-07T02:01:10.181Z,30.40
2022-08-07T02:03:50.133Z,30.40
2022-08-07T02:06:31.458Z,30.40
2022-08-07T02:09:06.633Z,30.50
2022-08-07T02:12:02.820Z,30.60
2022-08-07T02:14:36.366Z,30.60
2022-08-07T02:17:24.746Z,30.70
2022-08-07T02:20:05.372Z,30.70
2022-08-07T02:22:41.424Z,30.70
2022-08-07T02:25:18.248Z,30.70
2022-08-07T02:27:59.720Z,30.60
2022-08-07T02:30:30.749Z,30.50
2022-08-07T02:33:09.472Z,30.40
2022-08-07T02:36:29.914Z,30.50
2022-08-07T02:38:36.331Z,30.50
2022-08-07T02:41:07.920Z,30.40
2022-08-07T02:43:43.547Z,30.40
2022-08-07T02:46:20.517Z,30.40
2022-08-07T02:48:54.707Z,30.20
2022-08-07T02:51:42.206Z,30.10
2022-08-07T02:54:16.193Z,30.10
2022-08-07T02:56:47.538Z,30.10
2022-08-07T02:59:24.144Z,30.10
2022-08-07T03:01:58.078Z,30.00
2022-08-07T03:04:31.259Z,30.00
2022-08-07T03:07:07.235Z,29.60
2022-08-07T03:09:43.699Z,29.70
2022-08-07T03:12:21.916Z,29.50
2022-08-07T03:14:56.888Z,29.20
2022-08-07T03:17:25.900Z,29.10
2022-08-07T03:19:59.326Z,28.90
2022-08-07T03:22:30.726Z,29.00
2022-08-07T03:25:00.775Z,28.50
2022-08-07T03:27:58.752Z,28.40
2022-08-07T03:30:26.781Z,28.60
2022-08-07T03:32:58.263Z,28.70
2022-08-07T03:35:43.584Z,28.90
2022-08-07T03:38:21.279Z,28.80
2022-08-07T03:40:53.856Z,28.70
2022-08-07T03:43:26.436Z,28.60
2022-08-07T03:45:56.655Z,28.50
2022-08-07T03:48:29.806Z,28.30
2022-08-07T03:50:59.158Z,28.20
2022-08-07T03:54:15.158Z,28.50
2022-08-07T03:56:33.175Z,28.70
2022-08-07T03:59:12.997Z,28.80
2022-08-07T04:01:50.354Z,28.90
2022-08-07T04:04:23.410Z,29.10
2022-08-07T04:06:55.290Z,29.20
2022-08-07T04:09:25.580Z,29.30
2022-08-07T04:12:23.771Z,29.30
2022-08-07T04:14:57.965Z,29.40
2022-08-07T04:18:56.413Z,29.40
2022-08-07T04:20:19.494Z,29.50
2022-08-07T04:22:53.426Z,29.60
2022-08-07T04:25:31.238Z,29.60
2022-08-07T04:28:08.116Z,29.70
2022-08-07T04:30:43.637Z,29.70
2022-08-07T04:33:28.199Z,29.70
2022-08-07T04:35:57.856Z,29.80
2022-08-07T04:38:28.923Z,29.80
2022-08-07T04:40:58.496Z,29.80
2022-08-07T04:44:12.498Z,29.80
2022-08-07T04:46:40.026Z,29.90
2022-08-07T04:49:38.423Z,29.70
2022-08-07T04:52:15.387Z,30.10
2022-08-07T04:54:58.522Z,30.10
2022-08-07T04:58:12.100Z,29.90
2022-08-07T05:00:32.435Z,30.10
2022-08-07T05:03:31.125Z,30.20
2022-08-07T05:06:03.341Z,30.30
2022-08-07T05:09:02.178Z,30.40
2022-08-07T05:11:57.087Z,30.40
2022-08-07T05:14:52.045Z,30.50
2022-08-07T05:17:52.095Z,30.50
2022-08-07T05:20:14.530Z,30.50
2022-08-07T05:22:50.625Z,30.50
2022-08-07T05:25:37.420Z,30.60
2022-08-07T05:28:20.503Z,30.50
2022-08-07T05:30:52.394Z,30.40
2022-08-07T05:33:22.436Z,30.50
2022-08-07T05:35:52.681Z,30.30
2022-08-07T05:39:00.168Z,30.40
2022-08-07T05:41:14.557Z,30.30
2022-08-07T05:44:07.791Z,30.30
2022-08-07T05:46:40.320Z,30.20
2022-08-07T05:49:13.071Z,30.10
2022-08-07T05:51:47.132Z,30.20
2022-08-07T05:54:44.555Z,30.40
2022-08-07T05:57:10.834Z,30.30
2022-08-07T05:59:57.142Z,30.30
2022-08-07T06:02:32.030Z,30.30
2022-08-07T06:05:10.912Z,30.50
2022-08-07T06:08:13.498Z,30.50
2022-08-07T06:10:36.327Z,30.50
2022-08-07T06:13:06.029Z,30.60
2022-08-07T06:15:42.977Z,30.70
2022-08-07T06:18:20.800Z,30.70
2022-08-07T06:22:14.979Z,30.50
2022-08-07T06:24:38.526Z,30.60
2022-08-07T06:26:29.536Z,30.70
2022-08-07T06:29:01.111Z,30.60
2022-08-07T06:31:46.832Z,30.50
2022-08-07T06:34:20.813Z,30.30
2022-08-07T06:36:52.021Z,30.10
2022-08-07T06:40:12.955Z,30.00
2022-08-07T06:42:19.132Z,30.10
2022-08-07T06:45:11.531Z,30.00
2022-08-07T06:47:57.086Z,30.10
2022-08-07T06:50:30.659Z,30.00
2022-08-07T06:53:04.353Z,29.90
2022-08-07T06:55:54.129Z,30.00
2022-08-07T06:58:27.551Z,29.90
2022-08-07T07:01:03.491Z,29.70
2022-08-07T07:03:47.492Z,29.80
2022-08-07T07:06:24.006Z,29.80
2022-08-07T07:08:57.036Z,29.90
2022-08-07T07:12:09.646Z,29.90
2022-08-07T07:14:17.329Z,30.00
2022-08-07T07:16:50.607Z,30.10
2022-08-07T07:19:56.001Z,30.30
2022-08-07T07:22:34.198Z,30.40
2022-08-07T07:25:14.260Z,30.50
2022-08-07T07:27:58.460Z,30.40
2022-08-07T07:30:38.307Z,30.30
2022-08-07T07:33:11.642Z,30.30
2022-08-07T07:35:51.884Z,30.50
2022-08-07T07:38:33.540Z,30.60
2022-08-07T07:41:05.971Z,30.70
2022-08-07T07:43:47.842Z,30.90
2022-08-07T07:46:54.463Z,30.90
2022-08-07T07:50:33.101Z,31.10
2022-08-07T07:52:16.823Z,31.20
2022-08-07T07:54:51.133Z,31.10
2022-08-07T07:57:50.440Z,31.20
2022-08-07T08:00:20.682Z,31.40
2022-08-07T08:03:05.354Z,31.70
2022-08-07T08:05:51.157Z,31.60
2022-08-07T08:08:34.373Z,31.70
2022-08-07T08:11:16.600Z,31.50
2022-08-07T08:13:53.827Z,31.70
2022-08-07T08:16:29.890Z,32.00
2022-08-07T08:19:17.476Z,32.10
2022-08-07T08:22:07.864Z,32.20
2022-08-07T08:25:09.356Z,32.20
2022-08-07T08:27:56.028Z,32.00
2022-08-07T08:30:27.972Z,32.10
2022-08-07T08:33:10.620Z,32.00
2022-08-07T08:35:50.077Z,31.80
2022-08-07T08:38:29.324Z,32.00
2022-08-07T08:41:06.219Z,32.40
2022-08-07T08:43:56.155Z,32.10
2022-08-07T08:46:38.135Z,32.50
2022-08-07T08:49:14.095Z,32.70
2022-08-07T08:52:14.128Z,33.00
2022-08-07T08:54:48.054Z,33.00
2022-08-07T08:57:33.867Z,33.00
2022-08-07T09:00:07.514Z,32.80
2022-08-07T09:02:46.222Z,32.90
2022-08-07T09:05:37.723Z,33.10
2022-08-07T09:08:32.863Z,33.50
2022-08-07T09:11:14.075Z,34.00
2022-08-07T09:14:06.113Z,34.00
2022-08-07T09:16:45.690Z,34.10
2022-08-07T09:19:51.821Z,34.00
2022-08-07T09:24:33.528Z,33.80
2022-08-07T09:25:40.115Z,33.50
2022-08-07T09:30:01.924Z,33.80
2022-08-07T09:31:07.457Z,33.90
2022-08-07T09:33:57.915Z,33.80
2022-08-07T09:36:35.711Z,33.90
2022-08-07T09:39:55.125Z,33.90
2022-08-07T09:42:34.987Z,33.90
2022-08-07T09:47:25.075Z,33.80
2022-08-07T09:48:15.118Z,33.70
2022-08-07T09:50:59.407Z,33.80
2022-08-07T09:53:40.816Z,33.70
2022-08-07T09:56:37.527Z,33.90
2022-08-07T09:59:29.443Z,34.10
2022-08-07T10:02:34.665Z,34.00
2022-08-07T10:05:58.083Z,33.80
2022-08-07T10:08:49.663Z,33.60
2022-08-07T10:12:01.555Z,33.30
2022-08-07T10:14:55.462Z,33.20
2022-08-07T10:18:11.877Z,33.20
2022-08-07T10:20:50.200Z,33.20
2022-08-07T10:24:05.410Z,33.60
2022-08-07T10:26:52.966Z,33.70
2022-08-07T10:29:51.608Z,34.00
2022-08-07T10:32:53.261Z,33.90
2022-08-07T10:35:55.869Z,33.80
2022-08-07T10:38:35.846Z,33.70
2022-08-07T10:41:15.992Z,33.70
2022-08-07T10:44:12.144Z,33.60
2022-08-07T10:46:52.866Z,33.50
2022-08-07T10:49:49.218Z,33.70
2022-08-07T10:52:22.621Z,33.60
2022-08-07T10:55:27.050Z,33.60
2022-08-07T10:58:14.519Z,33.50
2022-08-07T11:00:55.997Z,33.50
2022-08-07T11:03:37.419Z,33.40
2022-08-07T11:06:22.939Z,33.20
2022-08-07T11:09:02.659Z,33.10
2022-08-07T11:11:35.858Z,33.10
2022-08-07T11:14:45.906Z,33.10
2022-08-07T11:17:09.188Z,33.20
2022-08-07T11:19:43.477Z,33.00
2022-08-07T11:22:32.237Z,33.00
2022-08-07T11:25:15.376Z,32.80
2022-08-07T11:28:02.925Z,32.80
2022-08-07T11:30:42.694Z,32.80
2022-08-07T11:33:53.860Z,33.10
2022-08-07T11:36:30.963Z,33.30
2022-08-07T11:39:09.328Z,33.60
2022-08-07T11:42:02.051Z,33.90
2022-08-07T11:44:52.416Z,33.90
2022-08-07T11:48:18.063Z,33.90
2022-08-07T11:51:10.028Z,34.00
2022-08-07T11:54:00.559Z,34.00
2022-08-07T11:56:53.061Z,33.90
2022-08-07T12:00:11.412Z,34.00
2022-08-07T12:03:07.941Z,34.20
2022-08-07T12:06:37.801Z,34.30
2022-08-07T12:09:07.390Z,34.50
2022-08-07T12:12:08.794Z,34.70
2022-08-07T12:14:32.089Z,34.90
2022-08-07T12:17:08.655Z,35.00
2022-08-07T12:20:03.322Z,35.00
2022-08-07T12:22:56.219Z,35.00
2022-08-07T12:26:02.999Z,35.30
2022-08-07T12:28:53.330Z,35.60
2022-08-07T12:31:53.303Z,36.00
2022-08-07T12:34:25.884Z,35.80
2022-08-07T12:36:55.589Z,36.10
2022-08-07T12:39:43.905Z,35.90
2022-08-07T12:42:18.744Z,35.90
2022-08-07T12:44:57.361Z,36.00
2022-08-07T12:47:33.732Z,35.90
2022-08-07T12:50:33.713Z,35.60
2022-08-07T12:54:23.762Z,35.40
2022-08-07T12:56:27.399Z,35.50
2022-08-07T12:58:59.514Z,35.20
2022-08-07T13:01:42.946Z,35.30
2022-08-07T13:04:34.164Z,35.40
2022-08-07T13:08:12.229Z,35.40
2022-08-07T13:10:52.003Z,35.20
2022-08-07T13:13:50.107Z,35.10
2022-08-07T13:16:28.069Z,34.90
2022-08-07T13:19:18.233Z,34.90
2022-08-07T13:22:06.139Z,34.90
2022-08-07T13:24:53.882Z,34.80
2022-08-07T13:28:06.309Z,34.60
2022-08-07T13:30:40.981Z,34.70
2022-08-07T13:33:16.374Z,34.80
2022-08-07T13:36:06.665Z,35.00
2022-08-07T13:38:41.909Z,35.00
2022-08-07T13:41:21.641Z,35.10
2022-08-07T13:43:56.151Z,35.00
2022-08-07T13:46:33.791Z,35.20
2022-08-07T13:49:08.724Z,35.10
2022-08-07T13:52:04.520Z,35.20
2022-08-07T13:54:33.558Z,35.00
2022-08-07T13:57:03.808Z,35.10
2022-08-07T13:59:34.511Z,35.10
2022-08-07T14:02:13.164Z,35.20
2022-08-07T14:04:50.118Z,35.00
2022-08-07T14:07:25.591Z,35.20
2022-08-07T14:10:01.210Z,35.10
2022-08-07T14:12:41.619Z,35.00
2022-08-07T14:15:23.782Z,34.90
2022-08-07T14:18:24.468Z,35.10
2022-08-07T14:20:54.389Z,34.80
2022-08-07T14:24:00.910Z,34.70
2022-08-07T14:26:28.045Z,34.90
2022-08-07T14:29:08.555Z,35.30
2022-08-07T14:31:42.298Z,35.20
2022-08-07T14:34:20.231Z,35.20
2022-08-07T14:36:56.353Z,35.20
2022-08-07T14:40:17.170Z,34.90
2022-08-07T14:42:19.688Z,35.00
2022-08-07T14:44:54.635Z,35.20
2022-08-07T14:47:33.767Z,35.30
2022-08-07T14:50:11.372Z,35.40
2022-08-07T14:52:42.615Z,35.20
2022-08-07T14:55:17.519Z,35.30
2022-08-07T14:58:06.269Z,34.80
2022-08-07T15:00:35.802Z,35.10
2022-08-07T15:03:19.519Z,35.40
2022-08-07T15:05:55.169Z,35.60
2022-08-07T15:08:34.830Z,35.40
2022-08-07T15:14:10.734Z,35.40
2022-08-07T15:16:42.657Z,35.40
2022-08-07T15:20:31.216Z,35.30
2022-08-07T15:22:29.102Z,35.30
2022-08-07T15:28:33.124Z,35.40
2022-08-07T15:31:05.218Z,35.40
2022-08-07T15:33:42.674Z,35.50
2022-08-07T15:36:13.457Z,35.50
2022-08-07T15:44:24.032Z,35.70
2022-08-07T15:46:58.709Z,35.90
2022-08-07T15:50:04.840Z,36.00
2022-08-07T15:52:30.491Z,36.10
2022-08-07T15:55:02.663Z,36.30
2022-08-07T15:57:39.994Z,36.30
2022-08-07T16:00:22.762Z,36.20
2022-08-07T16:03:04.681Z,35.90
2022-08-07T16:05:34.061Z,35.80
2022-08-07T16:08:31.292Z,35.70
2022-08-07T16:11:26.214Z,35.60
2022-08-07T16:14:03.239Z,35.50
2022-08-07T16:16:57.539Z,35.40
2022-08-07T16:19:59.686Z,35.40
2022-08-07T16:22:54.265Z,35.50
2022-08-07T16:25:54.070Z,35.50
2022-08-07T16:30:07.878Z,35.60
2022-08-07T16:31:50.392Z,35.60
2022-08-07T16:34:25.191Z,35.60
2022-08-07T16:38:04.730Z,35.60
2022-08-07T16:40:23.448Z,35.60
2022-08-07T16:43:10.036Z,35.50
2022-08-07T16:46:33.016Z,35.30
2022-08-07T16:50:20.353Z,35.10
2022-08-07T16:52:59.682Z,35.00
2022-08-07T16:55:43.737Z,34.80
2022-08-07T16:58:27.467Z,34.80
2022-08-07T17:01:15.684Z,34.70
2022-08-07T17:03:59.842Z,34.70
2022-08-07T17:06:57.986Z,34.70
2022-08-07T17:10:07.887Z,34.70
2022-08-07T17:12:38.812Z,34.80
2022-08-07T17:15:23.245Z,34.70
2022-08-07T17:18:18.357Z,34.60
2022-08-07T17:20:47.665Z,34.40
2022-08-07T17:23:40.991Z,34.50
2022-08-07T17:26:23.571Z,34.50
2022-08-07T17:29:18.328Z,34.40
2022-08-07T17:32:30.548Z,34.20
2022-08-07T17:35:50.458Z,34.00
2022-08-07T17:38:05.589Z,33.50
2022-08-07T17:40:50.725Z,33.40
2022-08-07T17:44:01.538Z,33.10
2022-08-07T17:46:22.722Z,33.10
2022-08-07T17:49:24.159Z,32.70
2022-08-07T17:52:00.583Z,32.70
2022-08-07T17:54:53.129Z,32.80
2022-08-07T17:57:55.988Z,32.80
2022-08-07T18:00:33.223Z,32.80
2022-08-07T18:03:11.333Z,32.30
2022-08-07T18:06:01.717Z,32.20
2022-08-07T18:08:34.930Z,31.90
2022-08-07T18:12:06.194Z,31.90
2022-08-07T18:14:06.102Z,32.00
2022-08-07T18:16:59.625Z,31.90
2022-08-07T18:21:09.470Z,31.80
2022-08-07T18:22:33.979Z,31.60
2022-08-07T18:25:19.421Z,31.70
2022-08-07T18:28:34.460Z,31.80
2022-08-07T18:31:07.546Z,31.70
2022-08-07T18:34:40.761Z,31.60
2022-08-07T18:37:11.019Z,31.60
2022-08-07T18:40:06.483Z,31.60
2022-08-07T18:42:47.987Z,31.60
2022-08-07T18:45:44.994Z,31.60
2022-08-07T18:50:04.712Z,31.60
2022-08-07T18:52:25.607Z,31.60
2022-08-07T18:54:30.684Z,31.60
2022-08-07T18:57:40.031Z,31.50
2022-08-07T19:00:32.890Z,31.50
2022-08-07T19:03:11.944Z,31.30
2022-08-07T19:06:02.837Z,31.20
2022-08-07T19:08:46.339Z,31.20
2022-08-07T19:11:35.330Z,31.00
2022-08-07T19:14:16.803Z,31.00
2022-08-07T19:17:07.595Z,30.80
2022-08-07T19:19:48.671Z,30.50
2022-08-07T19:22:31.052Z,30.40
2022-08-07T19:25:05.519Z,30.40
2022-08-07T19:28:57.599Z,30.40
2022-08-07T19:31:04.152Z,30.20
2022-08-07T19:33:35.269Z,30.00
2022-08-07T19:36:08.899Z,29.90
2022-08-07T19:38:52.543Z,29.90
2022-08-07T19:41:44.327Z,29.80
2022-08-07T19:44:21.389Z,29.90
2022-08-07T19:46:55.706Z,29.80
2022-08-07T19:49:58.431Z,29.60
2022-08-07T19:52:22.484Z,29.70
2022-08-07T19:54:55.779Z,29.60
2022-08-07T19:58:01.619Z,29.60
2022-08-07T20:00:28.402Z,29.50
2022-08-07T20:03:34.076Z,29.40
2022-08-07T20:06:05.207Z,29.30
2022-08-07T20:08:37.041Z,29.20
2022-08-07T20:11:10.363Z,29.20
2022-08-07T20:13:44.291Z,29.10
2022-08-07T20:16:35.404Z,29.10
2022-08-07T20:19:10.595Z,29.00
2022-08-07T20:21:42.212Z,28.80
2022-08-07T20:24:20.698Z,28.80
2022-08-07T20:26:54.641Z,28.60
2022-08-07T20:29:48.702Z,28.70
2022-08-07T20:32:25.421Z,28.50
2022-08-07T20:34:58.908Z,28.70
2022-08-07T20:37:33.810Z,28.50
2022-08-07T20:40:32.229Z,28.60
2022-08-07T20:42:57.874Z,28.50
2022-08-07T20:45:33.052Z,28.70
2022-08-07T20:48:28.372Z,28.60
2022-08-07T20:51:02.483Z,28.40
2022-08-07T20:54:04.131Z,28.50
2022-08-07T20:56:26.419Z,28.50
2022-08-07T20:58:58.671Z,28.50
2022-08-07T21:01:29.826Z,28.70
2022-08-07T21:04:22.526Z,28.60
2022-08-07T21:06:56.912Z,28.50
2022-08-07T21:09:35.421Z,28.60
2022-08-07T21:12:28.730Z,28.40
2022-08-07T21:14:59.575Z,28.30
2022-08-07T21:18:02.417Z,28.30
2022-08-07T21:20:29.753Z,28.50
2022-08-07T21:23:08.019Z,28.40
2022-08-07T21:25:56.222Z,28.30
2022-08-07T21:28:48.388Z,28.30
2022-08-07T21:31:50.115Z,28.30
2022-08-07T21:34:21.381Z,28.30
2022-08-07T21:37:05.012Z,28.20
2022-08-07T21:39:48.560Z,28.10
2022-08-07T21:42:48.022Z,28.00
2022-08-07T21:46:04.885Z,28.00
2022-08-07T21:48:28.668Z,28.10
2022-08-07T21:51:19.858Z,28.10
2022-08-07T21:53:54.366Z,28.10
2022-08-07T21:56:39.738Z,28.00
2022-08-07T21:59:19.108Z,28.00
2022-08-07T22:02:11.074Z,27.80
2022-08-07T22:04:52.582Z,27.70
2022-08-07T22:07:42.774Z,27.70
2022-08-07T22:10:19.884Z,27.80
2022-08-07T22:12:54.544Z,27.80
2022-08-07T22:16:41.850Z,27.70
2022-08-07T22:18:24.730Z,27.60
2022-08-07T22:21:01.652Z,27.60
2022-08-07T22:23:40.491Z,27.60
2022-08-07T22:26:24.125Z,27.70
2022-08-07T22:29:01.116Z,27.60
2022-08-07T22:31:56.435Z,27.50
2022-08-07T22:34:38.595Z,27.40
2022-08-07T22:37:17.948Z,27.40
2022-08-07T22:39:53.986Z,27.40
2022-08-07T22:42:29.300Z,27.40
2022-08-07T22:45:04.317Z,27.30
2022-08-07T22:48:13.752Z,27.50
2022-08-07T22:51:22.736Z,27.60
2022-08-07T22:54:09.417Z,27.80
2022-08-07T22:56:53.351Z,27.80
2022-08-07T22:59:49.763Z,27.80
2022-08-07T23:02:38.235Z,27.60
2022-08-07T23:06:09.166Z,27.70
2022-08-07T23:08:55.739Z,27.80
2022-08-07T23:11:41.561Z,27.80
2022-08-07T23:14:36.552Z,27.80
2022-08-07T23:17:22.045Z,28.00
2022-08-07T23:20:40.211Z,27.90
2022-08-07T23:24:06.956Z,27.90
2022-08-07T23:26:26.111Z,27.90
2022-08-07T23:29:17.110Z,27.90
2022-08-07T23:34:20.774Z,27.90
2022-08-07T23:35:14.393Z,27.90
2022-08-07T23:38:42.222Z,27.80
2022-08-07T23:41:22.458Z,27.90
2022-08-07T23:44:19.209Z,27.80
2022-08-07T23:47:18.671Z,27.80
2022-08-07T23:50:24.382Z,27.80
2022-08-07T23:53:06.669Z,27.90
2022-08-07T23:55:51.809Z,28.10
2022-08-07T23:58:27.278Z,28.10
